sensor_id;sensor_type;location;lat;lon;timestamp;P1;durP1;ratioP1;P2;durP2;ratioP2
46028;SDS011;31763;48.180;7.904;2022-10-22T00:00:00;2.88;;;0.50;;
46028;SDS011;31763;48.180;7.904;2022-10-22T00:02:27;2.13;;;0.47;;
46028;SDS011;31763;48.180;7.904;2022-10-22T00:04:54;2.40;;;0.32;;
46028;SDS011;31763;48.180;7.904;2022-10-22T00:07:22;0.52;;;0.10;;
46028;SDS011;31763;48.180;7.904;2022-10-22T00:09:49;1.00;;;0.30;;
46028;SDS011;31763;48.180;7.904;2022-10-22T00:12:16;0.43;;;0.20;;
46028;SDS011;31763;48.180;7.904;2022-10-22T00:14:43;1.27;;;0.63;;
46028;SDS011;31763;48.180;7.904;2022-10-22T00:17:11;3.25;;;0.60;;
46028;SDS011;31763;48.180;7.904;2022-10-22T00:19:38;0.93;;;0.40;;
46028;SDS011;31763;48.180;7.904;2022-10-22T00:22:06;1.55;;;0.30;;
46028;SDS011;31763;48.180;7.904;2022-10-22T00:24:34;1.67;;;0.52;;
46028;SDS011;31763;48.180;7.904;2022-10-22T00:27:03;2.47;;;0.60;;
46028;SDS011;31763;48.180;7.904;2022-10-22T00:29:31;1.50;;;0.50;;
46028;SDS011;31763;48.180;7.904;2022-10-22T00:31:58;1.58;;;0.35;;
46028;SDS011;31763;48.180;7.904;2022-10-22T00:34:25;0.55;;;0.30;;
46028;SDS011;31763;48.180;7.904;2022-10-22T00:36:52;0.40;;;0.30;;
46028;SDS011;31763;48.180;7.904;2022-10-22T00:39:21;2.20;;;0.40;;
46028;SDS011;31763;48.180;7.904;2022-10-22T00:41:50;0.55;;;0.30;;
46028;SDS011;31763;48.180;7.904;2022-10-22T00:47:48;0.40;;;0.30;;
46028;SDS011;31763;48.180;7.904;2022-10-22T00:53:24;2.42;;;0.40;;
46028;SDS011;31763;48.180;7.904;2022-10-22T00:55:57;0.30;;;0.20;;
46028;SDS011;31763;48.180;7.904;2022-10-22T00:58:25;1.55;;;0.30;;
46028;SDS011;31763;48.180;7.904;2022-10-22T01:00:55;2.38;;;0.60;;
46028;SDS011;31763;48.180;7.904;2022-10-22T01:03:22;2.22;;;0.40;;
46028;SDS011;31763;48.180;7.904;2022-10-22T01:05:56;0.55;;;0.40;;
46028;SDS011;31763;48.180;7.904;2022-10-22T01:08:37;0.73;;;0.30;;
46028;SDS011;31763;48.180;7.904;2022-10-22T01:31:28;2.55;;;0.43;;
46028;SDS011;31763;48.180;7.904;2022-10-22T01:34:03;1.55;;;0.50;;
46028;SDS011;31763;48.180;7.904;2022-10-22T01:36:32;0.95;;;0.40;;
46028;SDS011;31763;48.180;7.904;2022-10-22T01:39:02;2.80;;;0.73;;
46028;SDS011;31763;48.180;7.904;2022-10-22T01:41:32;1.42;;;0.50;;
46028;SDS011;31763;48.180;7.904;2022-10-22T01:44:00;1.05;;;0.50;;
46028;SDS011;31763;48.180;7.904;2022-10-22T01:46:27;1.10;;;0.40;;
46028;SDS011;31763;48.180;7.904;2022-10-22T01:57:12;3.47;;;1.00;;
46028;SDS011;31763;48.180;7.904;2022-10-22T01:59:58;0.95;;;0.73;;
46028;SDS011;31763;48.180;7.904;2022-10-22T02:05:56;1.05;;;0.93;;
46028;SDS011;31763;48.180;7.904;2022-10-22T02:08:30;4.40;;;0.80;;
46028;SDS011;31763;48.180;7.904;2022-10-22T02:10:59;0.63;;;0.63;;
46028;SDS011;31763;48.180;7.904;2022-10-22T02:13:27;1.02;;;0.60;;
46028;SDS011;31763;48.180;7.904;2022-10-22T02:16:02;0.77;;;0.50;;
46028;SDS011;31763;48.180;7.904;2022-10-22T02:18:32;0.80;;;0.30;;
46028;SDS011;31763;48.180;7.904;2022-10-22T02:21:04;0.28;;;0.20;;
46028;SDS011;31763;48.180;7.904;2022-10-22T02:23:33;0.30;;;0.20;;
46028;SDS011;31763;48.180;7.904;2022-10-22T02:26:09;0.77;;;0.20;;
46028;SDS011;31763;48.180;7.904;2022-10-22T02:29:13;0.45;;;0.20;;
46028;SDS011;31763;48.180;7.904;2022-10-22T02:31:47;1.10;;;0.55;;
46028;SDS011;31763;48.180;7.904;2022-10-22T02:34:17;0.75;;;0.20;;
46028;SDS011;31763;48.180;7.904;2022-10-22T02:36:48;0.35;;;0.28;;
46028;SDS011;31763;48.180;7.904;2022-10-22T02:39:16;1.70;;;0.22;;
46028;SDS011;31763;48.180;7.904;2022-10-22T02:41:45;1.05;;;0.30;;
46028;SDS011;31763;48.180;7.904;2022-10-22T02:44:12;1.35;;;0.28;;
46028;SDS011;31763;48.180;7.904;2022-10-22T02:46:39;0.38;;;0.20;;
46028;SDS011;31763;48.180;7.904;2022-10-22T02:49:08;0.88;;;0.30;;
46028;SDS011;31763;48.180;7.904;2022-10-22T02:51:35;1.48;;;0.30;;
46028;SDS011;31763;48.180;7.904;2022-10-22T02:54:02;0.50;;;0.28;;
46028;SDS011;31763;48.180;7.904;2022-10-22T02:56:28;0.60;;;0.30;;
46028;SDS011;31763;48.180;7.904;2022-10-22T02:58:55;0.28;;;0.20;;
46028;SDS011;31763;48.180;7.904;2022-10-22T03:01:22;1.27;;;0.25;;
46028;SDS011;31763;48.180;7.904;2022-10-22T03:03:49;0.85;;;0.80;;
46028;SDS011;31763;48.180;7.904;2022-10-22T03:06:16;2.05;;;0.35;;
46028;SDS011;31763;48.180;7.904;2022-10-22T03:08:43;1.08;;;0.30;;
46028;SDS011;31763;48.180;7.904;2022-10-22T03:11:10;0.50;;;0.28;;
46028;SDS011;31763;48.180;7.904;2022-10-22T03:13:37;1.17;;;0.50;;
46028;SDS011;31763;48.180;7.904;2022-10-22T03:16:04;0.98;;;0.40;;
46028;SDS011;31763;48.180;7.904;2022-10-22T03:18:31;1.08;;;0.40;;
46028;SDS011;31763;48.180;7.904;2022-10-22T03:21:05;2.00;;;0.30;;
46028;SDS011;31763;48.180;7.904;2022-10-22T03:24:01;0.55;;;0.35;;
46028;SDS011;31763;48.180;7.904;2022-10-22T03:26:37;2.22;;;0.30;;
46028;SDS011;31763;48.180;7.904;2022-10-22T03:29:07;0.57;;;0.25;;
46028;SDS011;31763;48.180;7.904;2022-10-22T03:31:36;3.95;;;0.47;;
46028;SDS011;31763;48.180;7.904;2022-10-22T03:34:03;5.45;;;0.70;;
46028;SDS011;31763;48.180;7.904;2022-10-22T03:36:30;1.58;;;0.22;;
46028;SDS011;31763;48.180;7.904;2022-10-22T03:38:58;1.40;;;0.35;;
46028;SDS011;31763;48.180;7.904;2022-10-22T03:41:27;1.38;;;0.30;;
46028;SDS011;31763;48.180;7.904;2022-10-22T03:43:54;1.23;;;0.35;;
46028;SDS011;31763;48.180;7.904;2022-10-22T03:46:22;0.90;;;0.40;;
46028;SDS011;31763;48.180;7.904;2022-10-22T03:48:49;1.95;;;0.35;;
46028;SDS011;31763;48.180;7.904;2022-10-22T03:51:16;1.60;;;0.50;;
46028;SDS011;31763;48.180;7.904;2022-10-22T03:53:42;0.40;;;0.30;;
46028;SDS011;31763;48.180;7.904;2022-10-22T03:56:10;1.95;;;0.40;;
46028;SDS011;31763;48.180;7.904;2022-10-22T03:58:38;0.88;;;0.50;;
46028;SDS011;31763;48.180;7.904;2022-10-22T04:01:07;0.75;;;0.60;;
46028;SDS011;31763;48.180;7.904;2022-10-22T04:03:35;0.75;;;0.65;;
46028;SDS011;31763;48.180;7.904;2022-10-22T04:06:04;2.50;;;0.60;;
46028;SDS011;31763;48.180;7.904;2022-10-22T04:08:40;3.63;;;0.93;;
46028;SDS011;31763;48.180;7.904;2022-10-22T04:11:09;0.70;;;0.60;;
46028;SDS011;31763;48.180;7.904;2022-10-22T04:13:37;1.42;;;0.50;;
46028;SDS011;31763;48.180;7.904;2022-10-22T04:18:40;2.20;;;0.30;;
46028;SDS011;31763;48.180;7.904;2022-10-22T04:21:08;1.27;;;0.40;;
46028;SDS011;31763;48.180;7.904;2022-10-22T04:23:38;1.00;;;0.38;;
46028;SDS011;31763;48.180;7.904;2022-10-22T04:26:05;2.63;;;0.63;;
46028;SDS011;31763;48.180;7.904;2022-10-22T04:28:33;2.35;;;0.40;;
46028;SDS011;31763;48.180;7.904;2022-10-22T04:31:05;1.00;;;0.57;;
46028;SDS011;31763;48.180;7.904;2022-10-22T04:33:38;2.92;;;0.47;;
46028;SDS011;31763;48.180;7.904;2022-10-22T04:36:09;6.75;;;0.60;;
46028;SDS011;31763;48.180;7.904;2022-10-22T04:38:43;2.03;;;0.60;;
46028;SDS011;31763;48.180;7.904;2022-10-22T04:41:14;0.88;;;0.45;;
46028;SDS011;31763;48.180;7.904;2022-10-22T04:43:44;2.13;;;0.50;;
46028;SDS011;31763;48.180;7.904;2022-10-22T04:46:13;3.47;;;1.70;;
46028;SDS011;31763;48.180;7.904;2022-10-22T04:48:42;4.82;;;1.77;;
46028;SDS011;31763;48.180;7.904;2022-10-22T04:51:11;3.65;;;1.10;;
46028;SDS011;31763;48.180;7.904;2022-10-22T04:53:43;0.95;;;0.80;;
46028;SDS011;31763;48.180;7.904;2022-10-22T04:58:46;2.45;;;0.70;;
46028;SDS011;31763;48.180;7.904;2022-10-22T05:01:21;1.15;;;0.73;;
46028;SDS011;31763;48.180;7.904;2022-10-22T05:03:58;1.95;;;1.08;;
46028;SDS011;31763;48.180;7.904;2022-10-22T05:06:28;8.02;;;2.13;;
46028;SDS011;31763;48.180;7.904;2022-10-22T05:08:57;4.40;;;2.55;;
46028;SDS011;31763;48.180;7.904;2022-10-22T05:11:28;2.50;;;1.88;;
46028;SDS011;31763;48.180;7.904;2022-10-22T05:13:59;3.38;;;2.33;;
46028;SDS011;31763;48.180;7.904;2022-10-22T05:16:29;48.13;;;3.70;;
46028;SDS011;31763;48.180;7.904;2022-10-22T05:18:57;67.95;;;4.65;;
46028;SDS011;31763;48.180;7.904;2022-10-22T05:21:26;30.00;;;3.28;;
46028;SDS011;31763;48.180;7.904;2022-10-22T05:23:54;49.15;;;4.03;;
46028;SDS011;31763;48.180;7.904;2022-10-22T05:26:22;33.55;;;3.00;;
46028;SDS011;31763;48.180;7.904;2022-10-22T05:28:50;8.43;;;1.88;;
46028;SDS011;31763;48.180;7.904;2022-10-22T05:31:17;4.40;;;1.33;;
46028;SDS011;31763;48.180;7.904;2022-10-22T05:33:45;15.63;;;1.67;;
46028;SDS011;31763;48.180;7.904;2022-10-22T05:36:13;6.55;;;1.35;;
46028;SDS011;31763;48.180;7.904;2022-10-22T05:38:44;3.78;;;1.15;;
46028;SDS011;31763;48.180;7.904;2022-10-22T05:41:12;2.88;;;0.82;;
46028;SDS011;31763;48.180;7.904;2022-10-22T05:43:42;1.73;;;0.85;;
46028;SDS011;31763;48.180;7.904;2022-10-22T05:46:10;1.23;;;0.80;;
46028;SDS011;31763;48.180;7.904;2022-10-22T05:48:47;1.00;;;0.90;;
46028;SDS011;31763;48.180;7.904;2022-10-22T05:51:25;1.48;;;1.00;;
46028;SDS011;31763;48.180;7.904;2022-10-22T05:53:56;2.25;;;0.80;;
46028;SDS011;31763;48.180;7.904;2022-10-22T05:56:29;1.75;;;0.57;;
46028;SDS011;31763;48.180;7.904;2022-10-22T05:58:57;0.80;;;0.60;;
46028;SDS011;31763;48.180;7.904;2022-10-22T06:01:28;2.28;;;0.70;;
46028;SDS011;31763;48.180;7.904;2022-10-22T06:03:59;1.30;;;0.52;;
46028;SDS011;31763;48.180;7.904;2022-10-22T06:09:06;3.22;;;0.40;;
46028;SDS011;31763;48.180;7.904;2022-10-22T06:11:39;1.80;;;0.55;;
46028;SDS011;31763;48.180;7.904;2022-10-22T06:14:06;1.33;;;0.63;;
46028;SDS011;31763;48.180;7.904;2022-10-22T06:16:33;2.10;;;0.38;;
46028;SDS011;31763;48.180;7.904;2022-10-22T06:19:00;1.10;;;0.57;;
46028;SDS011;31763;48.180;7.904;2022-10-22T06:21:28;3.53;;;1.17;;
46028;SDS011;31763;48.180;7.904;2022-10-22T06:23:56;1.10;;;0.77;;
46028;SDS011;31763;48.180;7.904;2022-10-22T06:26:24;2.92;;;0.73;;
46028;SDS011;31763;48.180;7.904;2022-10-22T06:28:51;4.93;;;1.13;;
46028;SDS011;31763;48.180;7.904;2022-10-22T06:31:20;1.85;;;0.60;;
46028;SDS011;31763;48.180;7.904;2022-10-22T06:33:49;0.85;;;0.70;;
46028;SDS011;31763;48.180;7.904;2022-10-22T06:36:17;1.30;;;0.50;;
46028;SDS011;31763;48.180;7.904;2022-10-22T06:38:50;3.15;;;0.65;;
46028;SDS011;31763;48.180;7.904;2022-10-22T06:41:18;2.22;;;0.40;;
46028;SDS011;31763;48.180;7.904;2022-10-22T06:43:50;1.20;;;0.50;;
46028;SDS011;31763;48.180;7.904;2022-10-22T06:46:19;3.80;;;0.60;;
46028;SDS011;31763;48.180;7.904;2022-10-22T06:48:51;1.40;;;0.40;;
46028;SDS011;31763;48.180;7.904;2022-10-22T06:51:21;0.60;;;0.60;;
46028;SDS011;31763;48.180;7.904;2022-10-22T06:53:48;0.93;;;0.60;;
46028;SDS011;31763;48.180;7.904;2022-10-22T06:56:16;2.60;;;0.60;;
46028;SDS011;31763;48.180;7.904;2022-10-22T06:58:46;1.33;;;0.90;;
46028;SDS011;31763;48.180;7.904;2022-10-22T07:01:18;1.90;;;0.90;;
46028;SDS011;31763;48.180;7.904;2022-10-22T07:03:51;2.47;;;0.60;;
46028;SDS011;31763;48.180;7.904;2022-10-22T07:06:18;1.98;;;0.93;;
46028;SDS011;31763;48.180;7.904;2022-10-22T07:08:47;2.95;;;0.50;;
46028;SDS011;31763;48.180;7.904;2022-10-22T07:13:44;0.50;;;0.50;;
46028;SDS011;31763;48.180;7.904;2022-10-22T07:16:12;1.25;;;0.45;;
46028;SDS011;31763;48.180;7.904;2022-10-22T07:18:39;0.60;;;0.50;;
46028;SDS011;31763;48.180;7.904;2022-10-22T07:21:07;2.30;;;0.95;;
46028;SDS011;31763;48.180;7.904;2022-10-22T07:23:36;2.78;;;0.57;;
46028;SDS011;31763;48.180;7.904;2022-10-22T07:26:04;0.82;;;0.50;;
46028;SDS011;31763;48.180;7.904;2022-10-22T07:28:36;1.95;;;0.68;;
46028;SDS011;31763;48.180;7.904;2022-10-22T07:31:05;3.63;;;0.50;;
46028;SDS011;31763;48.180;7.904;2022-10-22T07:33:36;1.35;;;0.52;;
46028;SDS011;31763;48.180;7.904;2022-10-22T07:36:05;3.20;;;1.15;;
46028;SDS011;31763;48.180;7.904;2022-10-22T07:38:34;0.90;;;0.60;;
46028;SDS011;31763;48.180;7.904;2022-10-22T07:41:02;2.80;;;0.47;;
46028;SDS011;31763;48.180;7.904;2022-10-22T07:43:29;1.33;;;0.77;;
46028;SDS011;31763;48.180;7.904;2022-10-22T07:45:56;3.88;;;0.60;;
46028;SDS011;31763;48.180;7.904;2022-10-22T07:48:24;1.08;;;0.52;;
46028;SDS011;31763;48.180;7.904;2022-10-22T07:50:51;2.35;;;0.98;;
46028;SDS011;31763;48.180;7.904;2022-10-22T07:53:18;3.65;;;0.60;;
46028;SDS011;31763;48.180;7.904;2022-10-22T07:55:46;2.13;;;0.85;;
46028;SDS011;31763;48.180;7.904;2022-10-22T07:58:18;1.00;;;0.43;;
46028;SDS011;31763;48.180;7.904;2022-10-22T08:03:14;1.17;;;0.57;;
46028;SDS011;31763;48.180;7.904;2022-10-22T08:05:43;3.15;;;0.73;;
46028;SDS011;31763;48.180;7.904;2022-10-22T08:08:10;1.40;;;0.75;;
46028;SDS011;31763;48.180;7.904;2022-10-22T08:10:39;3.00;;;0.82;;
46028;SDS011;31763;48.180;7.904;2022-10-22T08:13:06;3.58;;;0.80;;
46028;SDS011;31763;48.180;7.904;2022-10-22T08:15:33;1.98;;;0.63;;
46028;SDS011;31763;48.180;7.904;2022-10-22T08:18:00;2.65;;;0.95;;
46028;SDS011;31763;48.180;7.904;2022-10-22T08:20:27;5.32;;;1.40;;
46028;SDS011;31763;48.180;7.904;2022-10-22T08:22:54;3.63;;;0.90;;
46028;SDS011;31763;48.180;7.904;2022-10-22T08:25:21;6.85;;;1.40;;
46028;SDS011;31763;48.180;7.904;2022-10-22T08:27:48;6.68;;;1.58;;
46028;SDS011;31763;48.180;7.904;2022-10-22T08:30:15;2.60;;;1.08;;
46028;SDS011;31763;48.180;7.904;2022-10-22T08:32:42;4.63;;;1.25;;
46028;SDS011;31763;48.180;7.904;2022-10-22T08:35:09;3.22;;;0.85;;
46028;SDS011;31763;48.180;7.904;2022-10-22T08:37:41;1.73;;;0.82;;
46028;SDS011;31763;48.180;7.904;2022-10-22T08:40:09;4.28;;;1.20;;
46028;SDS011;31763;48.180;7.904;2022-10-22T08:48:40;2.72;;;1.10;;
46028;SDS011;31763;48.180;7.904;2022-10-22T08:51:15;4.00;;;1.20;;
46028;SDS011;31763;48.180;7.904;2022-10-22T08:57:30;3.22;;;1.13;;
46028;SDS011;31763;48.180;7.904;2022-10-22T09:06:24;2.40;;;1.10;;
46028;SDS011;31763;48.180;7.904;2022-10-22T09:08:55;3.38;;;1.13;;
46028;SDS011;31763;48.180;7.904;2022-10-22T09:11:32;4.65;;;1.27;;
46028;SDS011;31763;48.180;7.904;2022-10-22T09:14:02;4.60;;;1.10;;
46028;SDS011;31763;48.180;7.904;2022-10-22T09:19:48;4.40;;;1.25;;
46028;SDS011;31763;48.180;7.904;2022-10-22T09:25:22;3.83;;;1.00;;
46028;SDS011;31763;48.180;7.904;2022-10-22T09:27:56;1.48;;;1.00;;
46028;SDS011;31763;48.180;7.904;2022-10-22T09:30:25;4.15;;;1.15;;
46028;SDS011;31763;48.180;7.904;2022-10-22T09:35:45;2.97;;;1.50;;
46028;SDS011;31763;48.180;7.904;2022-10-22T09:38:19;3.95;;;1.33;;
46028;SDS011;31763;48.180;7.904;2022-10-22T09:40:57;7.45;;;2.03;;
46028;SDS011;31763;48.180;7.904;2022-10-22T09:43:26;5.85;;;1.55;;
46028;SDS011;31763;48.180;7.904;2022-10-22T09:45:56;12.60;;;2.22;;
46028;SDS011;31763;48.180;7.904;2022-10-22T09:51:19;4.57;;;1.40;;
46028;SDS011;31763;48.180;7.904;2022-10-22T09:56:27;4.63;;;1.20;;
46028;SDS011;31763;48.180;7.904;2022-10-22T09:59:01;4.78;;;1.70;;
46028;SDS011;31763;48.180;7.904;2022-10-22T10:01:33;3.22;;;1.40;;
46028;SDS011;31763;48.180;7.904;2022-10-22T10:04:07;3.88;;;1.15;;
46028;SDS011;31763;48.180;7.904;2022-10-22T10:06:41;4.97;;;1.67;;
46028;SDS011;31763;48.180;7.904;2022-10-22T10:09:17;5.20;;;1.67;;
46028;SDS011;31763;48.180;7.904;2022-10-22T10:18:04;4.25;;;1.20;;
46028;SDS011;31763;48.180;7.904;2022-10-22T10:24:15;4.22;;;1.23;;
46028;SDS011;31763;48.180;7.904;2022-10-22T10:32:37;6.22;;;1.48;;
46028;SDS011;31763;48.180;7.904;2022-10-22T10:35:26;2.17;;;1.20;;
46028;SDS011;31763;48.180;7.904;2022-10-22T10:40:57;6.80;;;2.00;;
46028;SDS011;31763;48.180;7.904;2022-10-22T10:49:45;4.57;;;1.50;;
46028;SDS011;31763;48.180;7.904;2022-10-22T10:52:26;2.78;;;1.20;;
46028;SDS011;31763;48.180;7.904;2022-10-22T11:01:11;3.08;;;1.00;;
46028;SDS011;31763;48.180;7.904;2022-10-22T11:04:05;4.20;;;1.35;;
46028;SDS011;31763;48.180;7.904;2022-10-22T11:06:51;5.75;;;1.50;;
46028;SDS011;31763;48.180;7.904;2022-10-22T11:12:38;3.90;;;1.55;;
46028;SDS011;31763;48.180;7.904;2022-10-22T11:15:20;3.65;;;1.27;;
46028;SDS011;31763;48.180;7.904;2022-10-22T11:18:43;4.28;;;1.40;;
46028;SDS011;31763;48.180;7.904;2022-10-22T11:21:09;3.28;;;1.17;;
46028;SDS011;31763;48.180;7.904;2022-10-22T11:24:01;6.80;;;1.25;;
46028;SDS011;31763;48.180;7.904;2022-10-22T11:26:35;6.95;;;2.00;;
46028;SDS011;31763;48.180;7.904;2022-10-22T11:29:21;5.63;;;1.70;;
46028;SDS011;31763;48.180;7.904;2022-10-22T11:32:00;2.50;;;1.45;;
46028;SDS011;31763;48.180;7.904;2022-10-22T11:34:35;3.35;;;1.38;;
46028;SDS011;31763;48.180;7.904;2022-10-22T11:37:41;6.13;;;1.33;;
46028;SDS011;31763;48.180;7.904;2022-10-22T11:40:18;3.15;;;1.20;;
46028;SDS011;31763;48.180;7.904;2022-10-22T11:42:48;3.75;;;1.30;;
46028;SDS011;31763;48.180;7.904;2022-10-22T11:48:06;5.53;;;1.23;;
46028;SDS011;31763;48.180;7.904;2022-10-22T11:53:17;4.07;;;1.23;;
46028;SDS011;31763;48.180;7.904;2022-10-22T11:58:41;2.40;;;1.05;;
46028;SDS011;31763;48.180;7.904;2022-10-22T12:03:40;6.57;;;2.20;;
46028;SDS011;31763;48.180;7.904;2022-10-22T12:11:16;4.43;;;1.27;;
46028;SDS011;31763;48.180;7.904;2022-10-22T12:21:54;3.78;;;1.10;;
46028;SDS011;31763;48.180;7.904;2022-10-22T12:24:45;5.07;;;1.55;;
46028;SDS011;31763;48.180;7.904;2022-10-22T12:29:58;7.10;;;2.35;;
46028;SDS011;31763;48.180;7.904;2022-10-22T12:32:36;2.20;;;1.42;;
46028;SDS011;31763;48.180;7.904;2022-10-22T12:35:07;5.03;;;2.17;;
46028;SDS011;31763;48.180;7.904;2022-10-22T12:37:41;3.08;;;1.42;;
46028;SDS011;31763;48.180;7.904;2022-10-22T12:40:19;4.70;;;2.55;;
46028;SDS011;31763;48.180;7.904;2022-10-22T12:43:00;3.50;;;1.77;;
46028;SDS011;31763;48.180;7.904;2022-10-22T12:45:36;3.58;;;1.42;;
46028;SDS011;31763;48.180;7.904;2022-10-22T12:48:10;3.60;;;1.48;;
46028;SDS011;31763;48.180;7.904;2022-10-22T12:50:50;5.70;;;1.30;;
46028;SDS011;31763;48.180;7.904;2022-10-22T12:53:27;4.90;;;1.00;;
46028;SDS011;31763;48.180;7.904;2022-10-22T12:56:01;7.22;;;1.45;;
46028;SDS011;31763;48.180;7.904;2022-10-22T12:58:38;3.83;;;1.00;;
46028;SDS011;31763;48.180;7.904;2022-10-22T13:01:09;4.25;;;1.13;;
46028;SDS011;31763;48.180;7.904;2022-10-22T13:03:42;3.90;;;1.27;;
46028;SDS011;31763;48.180;7.904;2022-10-22T13:08:54;2.83;;;1.00;;
46028;SDS011;31763;48.180;7.904;2022-10-22T13:11:31;2.90;;;1.05;;
46028;SDS011;31763;48.180;7.904;2022-10-22T13:14:04;5.93;;;1.30;;
46028;SDS011;31763;48.180;7.904;2022-10-22T13:25:40;4.53;;;1.50;;
46028;SDS011;31763;48.180;7.904;2022-10-22T13:29:09;3.95;;;1.13;;
46028;SDS011;31763;48.180;7.904;2022-10-22T13:35:43;3.80;;;1.02;;
46028;SDS011;31763;48.180;7.904;2022-10-22T13:38:21;4.05;;;1.20;;
46028;SDS011;31763;48.180;7.904;2022-10-22T13:41:24;2.95;;;1.25;;
46028;SDS011;31763;48.180;7.904;2022-10-22T13:44:04;2.30;;;1.65;;
46028;SDS011;31763;48.180;7.904;2022-10-22T13:50:01;3.90;;;1.15;;
46028;SDS011;31763;48.180;7.904;2022-10-22T13:52:33;9.48;;;2.53;;
46028;SDS011;31763;48.180;7.904;2022-10-22T13:55:20;3.13;;;1.20;;
46028;SDS011;31763;48.180;7.904;2022-10-22T13:57:53;3.60;;;1.25;;
46028;SDS011;31763;48.180;7.904;2022-10-22T14:00:29;4.63;;;1.08;;
46028;SDS011;31763;48.180;7.904;2022-10-22T14:02:56;2.17;;;1.02;;
46028;SDS011;31763;48.180;7.904;2022-10-22T14:05:24;3.58;;;1.10;;
46028;SDS011;31763;48.180;7.904;2022-10-22T14:07:52;3.97;;;1.00;;
46028;SDS011;31763;48.180;7.904;2022-10-22T14:10:22;4.22;;;1.10;;
46028;SDS011;31763;48.180;7.904;2022-10-22T14:12:50;5.78;;;1.20;;
46028;SDS011;31763;48.180;7.904;2022-10-22T14:15:20;3.50;;;1.20;;
46028;SDS011;31763;48.180;7.904;2022-10-22T14:17:53;3.17;;;1.25;;
46028;SDS011;31763;48.180;7.904;2022-10-22T14:20:24;4.32;;;1.20;;
46028;SDS011;31763;48.180;7.904;2022-10-22T14:22:54;5.50;;;1.45;;
46028;SDS011;31763;48.180;7.904;2022-10-22T14:25:26;3.95;;;1.10;;
46028;SDS011;31763;48.180;7.904;2022-10-22T14:27:56;2.28;;;1.27;;
46028;SDS011;31763;48.180;7.904;2022-10-22T14:30:23;4.90;;;1.33;;
46028;SDS011;31763;48.180;7.904;2022-10-22T14:32:51;6.38;;;1.60;;
46028;SDS011;31763;48.180;7.904;2022-10-22T14:35:19;4.05;;;1.60;;
46028;SDS011;31763;48.180;7.904;2022-10-22T14:37:47;6.25;;;1.33;;
46028;SDS011;31763;48.180;7.904;2022-10-22T14:40:15;3.70;;;1.67;;
46028;SDS011;31763;48.180;7.904;2022-10-22T14:42:46;4.57;;;1.38;;
46028;SDS011;31763;48.180;7.904;2022-10-22T14:45:24;2.22;;;1.08;;
46028;SDS011;31763;48.180;7.904;2022-10-22T14:47:52;5.20;;;1.40;;
46028;SDS011;31763;48.180;7.904;2022-10-22T14:50:22;4.60;;;1.27;;
46028;SDS011;31763;48.180;7.904;2022-10-22T14:52:50;3.00;;;1.50;;
46028;SDS011;31763;48.180;7.904;2022-10-22T14:55:17;3.08;;;1.05;;
46028;SDS011;31763;48.180;7.904;2022-10-22T14:57:45;3.00;;;1.10;;
46028;SDS011;31763;48.180;7.904;2022-10-22T15:00:15;2.60;;;0.98;;
46028;SDS011;31763;48.180;7.904;2022-10-22T15:02:43;2.88;;;1.35;;
46028;SDS011;31763;48.180;7.904;2022-10-22T15:05:11;3.75;;;1.80;;
46028;SDS011;31763;48.180;7.904;2022-10-22T15:07:39;5.57;;;1.63;;
46028;SDS011;31763;48.180;7.904;2022-10-22T15:10:07;3.75;;;1.52;;
46028;SDS011;31763;48.180;7.904;2022-10-22T15:12:34;5.50;;;1.80;;
46028;SDS011;31763;48.180;7.904;2022-10-22T15:15:02;7.28;;;2.17;;
46028;SDS011;31763;48.180;7.904;2022-10-22T15:17:29;4.47;;;1.67;;
46028;SDS011;31763;48.180;7.904;2022-10-22T15:19:56;3.20;;;1.15;;
46028;SDS011;31763;48.180;7.904;2022-10-22T15:22:26;1.75;;;1.10;;
46028;SDS011;31763;48.180;7.904;2022-10-22T15:24:53;4.80;;;1.45;;
46028;SDS011;31763;48.180;7.904;2022-10-22T15:27:20;3.53;;;1.08;;
46028;SDS011;31763;48.180;7.904;2022-10-22T15:29:47;3.80;;;1.17;;
46028;SDS011;31763;48.180;7.904;2022-10-22T15:32:14;3.90;;;0.80;;
46028;SDS011;31763;48.180;7.904;2022-10-22T15:34:40;1.65;;;1.00;;
46028;SDS011;31763;48.180;7.904;2022-10-22T15:37:08;2.38;;;1.10;;
46028;SDS011;31763;48.180;7.904;2022-10-22T15:39:38;6.03;;;2.00;;
46028;SDS011;31763;48.180;7.904;2022-10-22T15:42:06;4.93;;;3.13;;
46028;SDS011;31763;48.180;7.904;2022-10-22T15:44:34;9.30;;;2.50;;
46028;SDS011;31763;48.180;7.904;2022-10-22T15:47:02;6.07;;;2.58;;
46028;SDS011;31763;48.180;7.904;2022-10-22T15:49:29;7.45;;;2.38;;
46028;SDS011;31763;48.180;7.904;2022-10-22T15:51:57;6.53;;;2.90;;
46028;SDS011;31763;48.180;7.904;2022-10-22T15:54:24;5.70;;;2.58;;
46028;SDS011;31763;48.180;7.904;2022-10-22T15:56:55;6.47;;;5.22;;
46028;SDS011;31763;48.180;7.904;2022-10-22T15:59:23;4.85;;;4.38;;
46028;SDS011;31763;48.180;7.904;2022-10-22T16:01:50;6.55;;;3.67;;
46028;SDS011;31763;48.180;7.904;2022-10-22T16:04:17;5.65;;;2.30;;
46028;SDS011;31763;48.180;7.904;2022-10-22T16:06:45;6.53;;;2.25;;
46028;SDS011;31763;48.180;7.904;2022-10-22T16:09:15;4.32;;;2.28;;
46028;SDS011;31763;48.180;7.904;2022-10-22T16:11:45;7.88;;;3.22;;
46028;SDS011;31763;48.180;7.904;2022-10-22T16:14:12;4.63;;;2.83;;
46028;SDS011;31763;48.180;7.904;2022-10-22T16:16:42;5.07;;;2.45;;
46028;SDS011;31763;48.180;7.904;2022-10-22T16:19:12;10.80;;;2.40;;
46028;SDS011;31763;48.180;7.904;2022-10-22T16:21:42;7.72;;;2.22;;
46028;SDS011;31763;48.180;7.904;2022-10-22T16:24:10;3.17;;;1.90;;
46028;SDS011;31763;48.180;7.904;2022-10-22T16:26:39;7.88;;;1.75;;
46028;SDS011;31763;48.180;7.904;2022-10-22T16:29:17;7.40;;;2.10;;
46028;SDS011;31763;48.180;7.904;2022-10-22T16:31:47;5.35;;;2.20;;
46028;SDS011;31763;48.180;7.904;2022-10-22T16:34:19;5.55;;;1.77;;
46028;SDS011;31763;48.180;7.904;2022-10-22T16:36:49;12.43;;;1.95;;
46028;SDS011;31763;48.180;7.904;2022-10-22T16:39:28;9.27;;;3.25;;
46028;SDS011;31763;48.180;7.904;2022-10-22T16:42:08;2.70;;;1.30;;
46028;SDS011;31763;48.180;7.904;2022-10-22T16:44:44;3.08;;;1.58;;
46028;SDS011;31763;48.180;7.904;2022-10-22T16:47:31;5.95;;;1.70;;
46028;SDS011;31763;48.180;7.904;2022-10-22T16:52:33;3.22;;;1.75;;
46028;SDS011;31763;48.180;7.904;2022-10-22T16:55:06;5.20;;;1.58;;
46028;SDS011;31763;48.180;7.904;2022-10-22T16:57:55;7.82;;;1.73;;
46028;SDS011;31763;48.180;7.904;2022-10-22T17:00:28;13.57;;;1.90;;
46028;SDS011;31763;48.180;7.904;2022-10-22T17:03:17;4.80;;;1.67;;
46028;SDS011;31763;48.180;7.904;2022-10-22T17:06:03;6.40;;;1.80;;
46028;SDS011;31763;48.180;7.904;2022-10-22T17:08:39;7.00;;;3.75;;
46028;SDS011;31763;48.180;7.904;2022-10-22T17:11:22;9.77;;;1.92;;
46028;SDS011;31763;48.180;7.904;2022-10-22T17:13:51;3.28;;;1.95;;
46028;SDS011;31763;48.180;7.904;2022-10-22T17:16:20;6.55;;;2.60;;
46028;SDS011;31763;48.180;7.904;2022-10-22T17:18:49;7.07;;;1.92;;
46028;SDS011;31763;48.180;7.904;2022-10-22T17:21:18;10.10;;;1.60;;
46028;SDS011;31763;48.180;7.904;2022-10-22T17:23:46;8.15;;;1.65;;
46028;SDS011;31763;48.180;7.904;2022-10-22T17:26:18;11.07;;;2.25;;
46028;SDS011;31763;48.180;7.904;2022-10-22T17:28:47;7.57;;;3.47;;
46028;SDS011;31763;48.180;7.904;2022-10-22T17:31:16;5.18;;;1.85;;
46028;SDS011;31763;48.180;7.904;2022-10-22T17:33:49;4.30;;;2.22;;
46028;SDS011;31763;48.180;7.904;2022-10-22T17:36:19;3.65;;;1.73;;
46028;SDS011;31763;48.180;7.904;2022-10-22T17:38:48;5.38;;;1.38;;
46028;SDS011;31763;48.180;7.904;2022-10-22T17:41:20;4.68;;;1.50;;
46028;SDS011;31763;48.180;7.904;2022-10-22T17:43:53;10.50;;;3.42;;
46028;SDS011;31763;48.180;7.904;2022-10-22T17:46:22;8.80;;;4.07;;
46028;SDS011;31763;48.180;7.904;2022-10-22T17:48:56;5.72;;;3.28;;
46028;SDS011;31763;48.180;7.904;2022-10-22T17:51:25;4.15;;;2.40;;
46028;SDS011;31763;48.180;7.904;2022-10-22T17:53:54;6.40;;;2.67;;
46028;SDS011;31763;48.180;7.904;2022-10-22T17:56:26;7.40;;;2.90;;